sensor_id;sensor_type;location;lat;lon;timestamp;P1;durP1;ratioP1;P2;durP2;ratioP2
59263;SDS011;45030;42.720;23.344;2023-04-24T00:02:05;7.00;;;4.30;;
59263;SDS011;45030;42.720;23.344;2023-04-24T00:04:31;5.65;;;4.38;;
59263;SDS011;45030;42.720;23.344;2023-04-24T00:06:57;7.35;;;4.78;;
59263;SDS011;45030;42.720;23.344;2023-04-24T00:09:25;7.88;;;4.63;;
59263;SDS011;45030;42.720;23.344;2023-04-24T00:11:50;7.32;;;4.90;;
59263;SDS011;45030;42.720;23.344;2023-04-24T00:14:15;7.13;;;4.55;;
59263;SDS011;45030;42.720;23.344;2023-04-24T00:16:41;5.95;;;4.78;;
59263;SDS011;45030;42.720;23.344;2023-04-24T00:19:06;10.25;;;5.35;;
59263;SDS011;45030;42.720;23.344;2023-04-24T00:21:31;6.55;;;4.93;;
59263;SDS011;45030;42.720;23.344;2023-04-24T00:23:57;7.95;;;5.35;;
59263;SDS011;45030;42.720;23.344;2023-04-24T00:26:23;9.77;;;4.35;;
59263;SDS011;45030;42.720;23.344;2023-04-24T00:28:48;6.60;;;4.22;;
59263;SDS011;45030;42.720;23.344;2023-04-24T00:31:13;7.55;;;4.60;;
59263;SDS011;45030;42.720;23.344;2023-04-24T00:33:38;9.48;;;4.70;;
59263;SDS011;45030;42.720;23.344;2023-04-24T00:36:04;5.47;;;3.88;;
59263;SDS011;45030;42.720;23.344;2023-04-24T00:38:30;9.95;;;4.45;;
59263;SDS011;45030;42.720;23.344;2023-04-24T00:40:56;9.40;;;4.40;;
59263;SDS011;45030;42.720;23.344;2023-04-24T00:43:21;6.93;;;4.50;;
59263;SDS011;45030;42.720;23.344;2023-04-24T00:45:46;8.05;;;4.72;;
59263;SDS011;45030;42.720;23.344;2023-04-24T00:48:11;6.82;;;5.05;;
59263;SDS011;45030;42.720;23.344;2023-04-24T00:50:37;9.93;;;4.32;;
59263;SDS011;45030;42.720;23.344;2023-04-24T00:53:03;6.43;;;4.53;;
59263;SDS011;45030;42.720;23.344;2023-04-24T00:55:28;5.45;;;4.25;;
59263;SDS011;45030;42.720;23.344;2023-04-24T00:57:53;6.53;;;4.20;;
59263;SDS011;45030;42.720;23.344;2023-04-24T01:00:19;5.85;;;3.92;;
59263;SDS011;45030;42.720;23.344;2023-04-24T01:02:45;7.03;;;4.55;;
59263;SDS011;45030;42.720;23.344;2023-04-24T01:05:13;6.82;;;4.93;;
59263;SDS011;45030;42.720;23.344;2023-04-24T01:07:40;7.07;;;4.55;;
59263;SDS011;45030;42.720;23.344;2023-04-24T01:10:09;10.35;;;4.82;;
59263;SDS011;45030;42.720;23.344;2023-04-24T01:12:34;8.98;;;4.47;;
59263;SDS011;45030;42.720;23.344;2023-04-24T01:14:59;8.43;;;4.78;;
59263;SDS011;45030;42.720;23.344;2023-04-24T01:17:25;8.77;;;5.38;;
59263;SDS011;45030;42.720;23.344;2023-04-24T01:19:50;6.57;;;4.13;;
59263;SDS011;45030;42.720;23.344;2023-04-24T01:22:18;9.77;;;5.32;;
59263;SDS011;45030;42.720;23.344;2023-04-24T01:24:45;11.43;;;5.47;;
59263;SDS011;45030;42.720;23.344;2023-04-24T01:27:11;9.90;;;6.53;;
59263;SDS011;45030;42.720;23.344;2023-04-24T01:29:37;10.13;;;6.30;;
59263;SDS011;45030;42.720;23.344;2023-04-24T01:32:03;10.30;;;6.18;;
59263;SDS011;45030;42.720;23.344;2023-04-24T01:34:28;8.90;;;6.22;;
59263;SDS011;45030;42.720;23.344;2023-04-24T01:36:53;11.80;;;6.45;;
59263;SDS011;45030;42.720;23.344;2023-04-24T01:39:19;8.07;;;6.15;;
59263;SDS011;45030;42.720;23.344;2023-04-24T01:41:45;7.53;;;5.55;;
59263;SDS011;45030;42.720;23.344;2023-04-24T01:44:11;9.13;;;5.78;;
59263;SDS011;45030;42.720;23.344;2023-04-24T01:46:36;11.07;;;6.18;;
59263;SDS011;45030;42.720;23.344;2023-04-24T01:49:02;9.43;;;6.07;;
59263;SDS011;45030;42.720;23.344;2023-04-24T01:51:27;9.70;;;6.65;;
59263;SDS011;45030;42.720;23.344;2023-04-24T01:53:52;10.65;;;6.13;;
59263;SDS011;45030;42.720;23.344;2023-04-24T01:56:19;17.30;;;9.93;;
59263;SDS011;45030;42.720;23.344;2023-04-24T01:58:45;18.40;;;11.90;;
59263;SDS011;45030;42.720;23.344;2023-04-24T02:01:14;17.98;;;12.13;;
59263;SDS011;45030;42.720;23.344;2023-04-24T02:03:42;15.77;;;10.35;;
59263;SDS011;45030;42.720;23.344;2023-04-24T02:06:07;13.93;;;8.00;;
59263;SDS011;45030;42.720;23.344;2023-04-24T02:08:32;13.38;;;9.15;;
59263;SDS011;45030;42.720;23.344;2023-04-24T02:10:58;13.82;;;8.35;;
59263;SDS011;45030;42.720;23.344;2023-04-24T02:13:23;12.80;;;8.32;;
59263;SDS011;45030;42.720;23.344;2023-04-24T02:15:48;16.88;;;9.90;;
59263;SDS011;45030;42.720;23.344;2023-04-24T02:18:13;16.15;;;10.75;;
59263;SDS011;45030;42.720;23.344;2023-04-24T02:20:38;19.40;;;14.60;;
59263;SDS011;45030;42.720;23.344;2023-04-24T02:23:04;12.63;;;9.30;;
59263;SDS011;45030;42.720;23.344;2023-04-24T02:25:29;14.02;;;7.75;;
59263;SDS011;45030;42.720;23.344;2023-04-24T02:27:54;11.98;;;8.30;;
59263;SDS011;45030;42.720;23.344;2023-04-24T02:30:20;18.02;;;10.30;;
59263;SDS011;45030;42.720;23.344;2023-04-24T02:32:45;12.32;;;8.07;;
59263;SDS011;45030;42.720;23.344;2023-04-24T02:35:10;14.02;;;7.75;;
59263;SDS011;45030;42.720;23.344;2023-04-24T02:37:35;12.68;;;7.57;;
59263;SDS011;45030;42.720;23.344;2023-04-24T02:40:01;11.45;;;6.95;;
59263;SDS011;45030;42.720;23.344;2023-04-24T02:42:26;16.17;;;7.97;;
59263;SDS011;45030;42.720;23.344;2023-04-24T02:44:51;12.55;;;7.72;;
59263;SDS011;45030;42.720;23.344;2023-04-24T02:47:16;11.98;;;8.02;;
59263;SDS011;45030;42.720;23.344;2023-04-24T02:49:42;15.20;;;8.18;;
59263;SDS011;45030;42.720;23.344;2023-04-24T02:52:07;9.70;;;6.78;;
59263;SDS011;45030;42.720;23.344;2023-04-24T02:54:32;11.25;;;6.50;;
59263;SDS011;45030;42.720;23.344;2023-04-24T02:56:57;10.45;;;6.72;;
59263;SDS011;45030;42.720;23.344;2023-04-24T02:59:22;12.93;;;7.60;;
59263;SDS011;45030;42.720;23.344;2023-04-24T03:01:48;13.23;;;7.45;;
59263;SDS011;45030;42.720;23.344;2023-04-24T03:04:14;12.55;;;7.70;;
59263;SDS011;45030;42.720;23.344;2023-04-24T03:06:40;12.63;;;8.13;;
59263;SDS011;45030;42.720;23.344;2023-04-24T03:09:05;12.13;;;8.48;;
59263;SDS011;45030;42.720;23.344;2023-04-24T03:11:31;17.02;;;8.60;;
59263;SDS011;45030;42.720;23.344;2023-04-24T03:13:56;11.93;;;7.82;;
59263;SDS011;45030;42.720;23.344;2023-04-24T03:16:21;15.95;;;8.88;;
59263;SDS011;45030;42.720;23.344;2023-04-24T03:18:46;9.38;;;6.97;;
59263;SDS011;45030;42.720;23.344;2023-04-24T03:21:12;8.98;;;7.10;;
59263;SDS011;45030;42.720;23.344;2023-04-24T03:23:37;11.95;;;8.27;;
59263;SDS011;45030;42.720;23.344;2023-04-24T03:26:02;12.68;;;8.05;;
59263;SDS011;45030;42.720;23.344;2023-04-24T03:28:27;15.80;;;9.63;;
59263;SDS011;45030;42.720;23.344;2023-04-24T03:30:53;14.77;;;10.35;;
59263;SDS011;45030;42.720;23.344;2023-04-24T03:33:18;17.95;;;10.23;;
59263;SDS011;45030;42.720;23.344;2023-04-24T03:35:43;11.45;;;8.70;;
59263;SDS011;45030;42.720;23.344;2023-04-24T03:38:08;17.75;;;9.05;;
59263;SDS011;45030;42.720;23.344;2023-04-24T03:40:33;13.82;;;9.30;;
59263;SDS011;45030;42.720;23.344;2023-04-24T03:42:59;16.33;;;10.85;;
59263;SDS011;45030;42.720;23.344;2023-04-24T03:45:24;17.08;;;10.07;;
59263;SDS011;45030;42.720;23.344;2023-04-24T03:47:50;17.63;;;10.52;;
59263;SDS011;45030;42.720;23.344;2023-04-24T03:50:15;18.95;;;11.52;;
59263;SDS011;45030;42.720;23.344;2023-04-24T03:52:40;16.73;;;8.90;;
59263;SDS011;45030;42.720;23.344;2023-04-24T03:55:06;23.90;;;13.65;;
59263;SDS011;45030;42.720;23.344;2023-04-24T03:57:31;19.95;;;12.27;;
59263;SDS011;45030;42.720;23.344;2023-04-24T03:59:56;22.83;;;12.23;;
59263;SDS011;45030;42.720;23.344;2023-04-24T04:02:22;22.10;;;17.40;;
59263;SDS011;45030;42.720;23.344;2023-04-24T04:04:47;28.98;;;20.15;;
59263;SDS011;45030;42.720;23.344;2023-04-24T04:07:12;28.98;;;15.05;;
59263;SDS011;45030;42.720;23.344;2023-04-24T04:09:38;25.83;;;13.77;;
59263;SDS011;45030;42.720;23.344;2023-04-24T04:12:03;25.90;;;14.07;;
59263;SDS011;45030;42.720;23.344;2023-04-24T04:14:28;26.30;;;14.98;;
59263;SDS011;45030;42.720;23.344;2023-04-24T04:16:53;31.25;;;19.73;;
59263;SDS011;45030;42.720;23.344;2023-04-24T04:19:19;36.05;;;20.67;;
59263;SDS011;45030;42.720;23.344;2023-04-24T04:21:44;31.13;;;20.40;;
59263;SDS011;45030;42.720;23.344;2023-04-24T04:24:10;32.53;;;21.98;;
59263;SDS011;45030;42.720;23.344;2023-04-24T04:26:36;29.33;;;19.05;;
59263;SDS011;45030;42.720;23.344;2023-04-24T04:29:02;25.45;;;17.48;;
59263;SDS011;45030;42.720;23.344;2023-04-24T04:31:28;21.80;;;15.05;;
59263;SDS011;45030;42.720;23.344;2023-04-24T04:33:54;20.13;;;13.07;;
59263;SDS011;45030;42.720;23.344;2023-04-24T04:36:19;25.27;;;13.45;;
59263;SDS011;45030;42.720;23.344;2023-04-24T04:38:44;13.93;;;10.40;;
59263;SDS011;45030;42.720;23.344;2023-04-24T04:41:10;16.15;;;9.95;;
59263;SDS011;45030;42.720;23.344;2023-04-24T04:43:35;16.52;;;8.70;;
59263;SDS011;45030;42.720;23.344;2023-04-24T04:46:01;13.68;;;7.90;;
59263;SDS011;45030;42.720;23.344;2023-04-24T04:48:28;17.20;;;9.23;;
59263;SDS011;45030;42.720;23.344;2023-04-24T04:50:53;12.18;;;7.57;;
59263;SDS011;45030;42.720;23.344;2023-04-24T04:53:19;10.13;;;7.15;;
59263;SDS011;45030;42.720;23.344;2023-04-24T04:55:44;11.15;;;6.50;;
59263;SDS011;45030;42.720;23.344;2023-04-24T04:58:09;12.35;;;7.63;;
59263;SDS011;45030;42.720;23.344;2023-04-24T05:00:34;11.65;;;6.68;;
59263;SDS011;45030;42.720;23.344;2023-04-24T05:03:02;10.50;;;7.00;;
59263;SDS011;45030;42.720;23.344;2023-04-24T05:05:28;11.65;;;6.68;;
59263;SDS011;45030;42.720;23.344;2023-04-24T05:07:53;14.95;;;7.43;;
59263;SDS011;45030;42.720;23.344;2023-04-24T05:10:18;14.30;;;8.05;;
59263;SDS011;45030;42.720;23.344;2023-04-24T05:12:43;15.20;;;7.65;;
59263;SDS011;45030;42.720;23.344;2023-04-24T05:15:09;15.02;;;6.93;;
59263;SDS011;45030;42.720;23.344;2023-04-24T05:17:34;10.70;;;6.75;;
59263;SDS011;45030;42.720;23.344;2023-04-24T05:20:00;11.70;;;6.53;;
59263;SDS011;45030;42.720;23.344;2023-04-24T05:22:25;10.60;;;5.85;;
59263;SDS011;45030;42.720;23.344;2023-04-24T05:24:50;11.90;;;5.72;;
59263;SDS011;45030;42.720;23.344;2023-04-24T05:27:16;12.02;;;6.32;;
59263;SDS011;45030;42.720;23.344;2023-04-24T05:29:41;10.30;;;5.82;;
59263;SDS011;45030;42.720;23.344;2023-04-24T05:32:06;11.48;;;5.97;;
59263;SDS011;45030;42.720;23.344;2023-04-24T05:34:32;9.93;;;6.03;;
59263;SDS011;45030;42.720;23.344;2023-04-24T05:36:57;7.75;;;5.60;;
59263;SDS011;45030;42.720;23.344;2023-04-24T05:39:22;12.93;;;5.43;;
59263;SDS011;45030;42.720;23.344;2023-04-24T05:41:49;9.93;;;6.20;;
59263;SDS011;45030;42.720;23.344;2023-04-24T05:44:15;9.70;;;6.03;;
59263;SDS011;45030;42.720;23.344;2023-04-24T05:46:40;9.32;;;6.18;;
59263;SDS011;45030;42.720;23.344;2023-04-24T05:49:05;8.38;;;5.50;;
59263;SDS011;45030;42.720;23.344;2023-04-24T05:51:31;8.02;;;5.03;;
59263;SDS011;45030;42.720;23.344;2023-04-24T05:53:56;8.57;;;5.60;;
59263;SDS011;45030;42.720;23.344;2023-04-24T05:56:22;6.32;;;4.60;;
59263;SDS011;45030;42.720;23.344;2023-04-24T05:58:47;10.70;;;5.38;;
59263;SDS011;45030;42.720;23.344;2023-04-24T06:01:13;10.45;;;5.82;;
59263;SDS011;45030;42.720;23.344;2023-04-24T06:03:39;8.63;;;5.95;;
59263;SDS011;45030;42.720;23.344;2023-04-24T06:06:05;7.13;;;4.97;;
59263;SDS011;45030;42.720;23.344;2023-04-24T06:08:30;8.73;;;5.57;;
59263;SDS011;45030;42.720;23.344;2023-04-24T06:10:56;8.98;;;6.10;;
59263;SDS011;45030;42.720;23.344;2023-04-24T06:13:21;11.20;;;5.68;;
59263;SDS011;45030;42.720;23.344;2023-04-24T06:15:46;9.85;;;5.63;;
59263;SDS011;45030;42.720;23.344;2023-04-24T06:18:11;7.80;;;5.70;;
59263;SDS011;45030;42.720;23.344;2023-04-24T06:20:37;7.75;;;4.82;;
59263;SDS011;45030;42.720;23.344;2023-04-24T06:23:02;7.20;;;4.85;;
59263;SDS011;45030;42.720;23.344;2023-04-24T06:25:28;9.05;;;5.00;;
59263;SDS011;45030;42.720;23.344;2023-04-24T06:27:53;7.70;;;5.03;;
59263;SDS011;45030;42.720;23.344;2023-04-24T06:30:19;5.57;;;4.20;;
59263;SDS011;45030;42.720;23.344;2023-04-24T06:32:44;6.18;;;4.65;;
59263;SDS011;45030;42.720;23.344;2023-04-24T06:35:09;8.88;;;4.57;;
59263;SDS011;45030;42.720;23.344;2023-04-24T06:37:36;7.53;;;4.88;;
59263;SDS011;45030;42.720;23.344;2023-04-24T06:40:01;7.28;;;4.75;;
59263;SDS011;45030;42.720;23.344;2023-04-24T06:42:27;10.68;;;5.28;;
59263;SDS011;45030;42.720;23.344;2023-04-24T06:44:52;7.25;;;4.95;;
59263;SDS011;45030;42.720;23.344;2023-04-24T06:47:17;10.15;;;6.70;;
59263;SDS011;45030;42.720;23.344;2023-04-24T06:49:43;8.45;;;5.85;;
59263;SDS011;45030;42.720;23.344;2023-04-24T06:52:08;10.13;;;5.68;;
59263;SDS011;45030;42.720;23.344;2023-04-24T06:54:34;10.00;;;5.32;;
59263;SDS011;45030;42.720;23.344;2023-04-24T06:56:59;8.07;;;5.00;;
59263;SDS011;45030;42.720;23.344;2023-04-24T06:59:28;7.15;;;4.95;;
59263;SDS011;45030;42.720;23.344;2023-04-24T07:01:54;7.20;;;5.07;;
59263;SDS011;45030;42.720;23.344;2023-04-24T07:04:19;12.23;;;6.18;;
59263;SDS011;45030;42.720;23.344;2023-04-24T07:06:45;11.02;;;5.60;;
59263;SDS011;45030;42.720;23.344;2023-04-24T07:09:10;10.25;;;5.80;;
59263;SDS011;45030;42.720;23.344;2023-04-24T07:11:36;9.80;;;5.15;;
59263;SDS011;45030;42.720;23.344;2023-04-24T07:14:02;9.13;;;5.45;;
59263;SDS011;45030;42.720;23.344;2023-04-24T07:16:28;8.82;;;4.57;;
59263;SDS011;45030;42.720;23.344;2023-04-24T07:18:53;8.88;;;4.40;;
59263;SDS011;45030;42.720;23.344;2023-04-24T07:21:18;8.60;;;4.50;;
59263;SDS011;45030;42.720;23.344;2023-04-24T07:23:43;9.68;;;4.78;;
59263;SDS011;45030;42.720;23.344;2023-04-24T07:26:09;9.00;;;5.00;;
59263;SDS011;45030;42.720;23.344;2023-04-24T07:28:34;13.07;;;4.88;;
59263;SDS011;45030;42.720;23.344;2023-04-24T07:30:59;8.63;;;4.53;;
59263;SDS011;45030;42.720;23.344;2023-04-24T07:33:25;9.27;;;4.50;;
59263;SDS011;45030;42.720;23.344;2023-04-24T07:35:51;6.32;;;4.00;;
59263;SDS011;45030;42.720;23.344;2023-04-24T07:38:17;8.60;;;5.60;;
59263;SDS011;45030;42.720;23.344;2023-04-24T07:40:45;7.47;;;4.60;;
59263;SDS011;45030;42.720;23.344;2023-04-24T07:43:10;6.57;;;4.70;;
59263;SDS011;45030;42.720;23.344;2023-04-24T07:45:35;10.47;;;5.40;;
59263;SDS011;45030;42.720;23.344;2023-04-24T07:48:02;9.60;;;4.82;;
59263;SDS011;45030;42.720;23.344;2023-04-24T07:50:27;6.43;;;4.82;;
59263;SDS011;45030;42.720;23.344;2023-04-24T07:52:52;9.47;;;4.60;;
59263;SDS011;45030;42.720;23.344;2023-04-24T07:55:18;9.75;;;4.22;;
59263;SDS011;45030;42.720;23.344;2023-04-24T07:57:43;6.18;;;4.13;;
59263;SDS011;45030;42.720;23.344;2023-04-24T08:00:08;9.27;;;4.55;;
59263;SDS011;45030;42.720;23.344;2023-04-24T08:02:34;8.70;;;4.85;;
59263;SDS011;45030;42.720;23.344;2023-04-24T08:04:59;5.47;;;3.55;;
59263;SDS011;45030;42.720;23.344;2023-04-24T08:07:24;6.40;;;4.33;;
59263;SDS011;45030;42.720;23.344;2023-04-24T08:09:50;5.73;;;3.80;;
59263;SDS011;45030;42.720;23.344;2023-04-24T08:12:15;5.72;;;3.92;;
59263;SDS011;45030;42.720;23.344;2023-04-24T08:14:40;6.15;;;3.70;;
59263;SDS011;45030;42.720;23.344;2023-04-24T08:17:05;5.97;;;3.97;;
59263;SDS011;45030;42.720;23.344;2023-04-24T08:19:31;5.68;;;3.53;;
59263;SDS011;45030;42.720;23.344;2023-04-24T08:21:56;8.30;;;3.80;;
59263;SDS011;45030;42.720;23.344;2023-04-24T08:24:21;5.77;;;3.63;;
59263;SDS011;45030;42.720;23.344;2023-04-24T08:26:47;4.80;;;3.67;;
59263;SDS011;45030;42.720;23.344;2023-04-24T08:29:15;4.35;;;3.80;;
59263;SDS011;45030;42.720;23.344;2023-04-24T08:31:40;5.68;;;3.63;;
59263;SDS011;45030;42.720;23.344;2023-04-24T08:34:06;5.82;;;3.58;;
59263;SDS011;45030;42.720;23.344;2023-04-24T08:36:31;7.43;;;3.97;;
59263;SDS011;45030;42.720;23.344;2023-04-24T08:38:56;5.18;;;3.13;;
59263;SDS011;45030;42.720;23.344;2023-04-24T08:41:22;5.70;;;3.90;;
59263;SDS011;45030;42.720;23.344;2023-04-24T08:43:49;5.65;;;3.85;;
59263;SDS011;45030;42.720;23.344;2023-04-24T08:46:15;6.45;;;3.53;;
59263;SDS011;45030;42.720;23.344;2023-04-24T08:48:41;6.38;;;4.13;;
59263;SDS011;45030;42.720;23.344;2023-04-24T08:51:07;6.57;;;4.15;;
59263;SDS011;45030;42.720;23.344;2023-04-24T08:53:32;5.43;;;4.18;;
59263;SDS011;45030;42.720;23.344;2023-04-24T08:55:58;6.13;;;3.60;;
59263;SDS011;45030;42.720;23.344;2023-04-24T08:58:26;6.85;;;3.92;;
59263;SDS011;45030;42.720;23.344;2023-04-24T09:00:53;7.07;;;3.47;;
59263;SDS011;45030;42.720;23.344;2023-04-24T09:03:19;7.93;;;3.63;;
59263;SDS011;45030;42.720;23.344;2023-04-24T09:05:46;7.72;;;3.92;;
59263;SDS011;45030;42.720;23.344;2023-04-24T09:08:12;4.82;;;3.28;;
59263;SDS011;45030;42.720;23.344;2023-04-24T09:10:38;5.88;;;3.70;;
59263;SDS011;45030;42.720;23.344;2023-04-24T09:13:04;9.02;;;3.83;;
59263;SDS011;45030;42.720;23.344;2023-04-24T09:15:29;5.50;;;3.43;;
59263;SDS011;45030;42.720;23.344;2023-04-24T09:17:55;5.40;;;3.60;;
59263;SDS011;45030;42.720;23.344;2023-04-24T09:20:20;5.20;;;3.78;;
59263;SDS011;45030;42.720;23.344;2023-04-24T09:22:45;5.13;;;3.23;;
59263;SDS011;45030;42.720;23.344;2023-04-24T09:25:10;6.05;;;3.08;;
59263;SDS011;45030;42.720;23.344;2023-04-24T09:27:41;5.50;;;3.22;;
59263;SDS011;45030;42.720;23.344;2023-04-24T09:30:06;5.68;;;3.83;;
59263;SDS011;45030;42.720;23.344;2023-04-24T09:32:32;8.65;;;3.78;;
59263;SDS011;45030;42.720;23.344;2023-04-24T09:35:14;5.43;;;3.47;;
59263;SDS011;45030;42.720;23.344;2023-04-24T09:37:44;3.72;;;3.15;;
59263;SDS011;45030;42.720;23.344;2023-04-24T09:40:16;8.40;;;3.40;;
59263;SDS011;45030;42.720;23.344;2023-04-24T09:42:45;5.68;;;3.33;;
59263;SDS011;45030;42.720;23.344;2023-04-24T09:45:11;6.57;;;3.38;;
59263;SDS011;45030;42.720;23.344;2023-04-24T09:47:37;5.55;;;2.75;;
59263;SDS011;45030;42.720;23.344;2023-04-24T09:50:09;6.15;;;4.20;;
59263;SDS011;45030;42.720;23.344;2023-04-24T09:52:34;6.63;;;3.25;;
59263;SDS011;45030;42.720;23.344;2023-04-24T09:55:00;3.42;;;2.80;;
59263;SDS011;45030;42.720;23.344;2023-04-24T09:57:25;3.80;;;3.07;;
59263;SDS011;45030;42.720;23.344;2023-04-24T09:59:50;6.35;;;3.95;;
59263;SDS011;45030;42.720;23.344;2023-04-24T10:02:18;5.78;;;3.10;;
59263;SDS011;45030;42.720;23.344;2023-04-24T10:04:53;3.97;;;3.10;;
59263;SDS011;45030;42.720;23.344;2023-04-24T10:07:20;8.50;;;3.17;;
59263;SDS011;45030;42.720;23.344;2023-04-24T10:09:45;7.38;;;2.92;;
59263;SDS011;45030;42.720;23.344;2023-04-24T10:12:10;7.18;;;2.97;;
59263;SDS011;45030;42.720;23.344;2023-04-24T10:14:36;4.65;;;2.70;;
59263;SDS011;45030;42.720;23.344;2023-04-24T10:17:01;7.37;;;3.10;;
59263;SDS011;45030;42.720;23.344;2023-04-24T10:19:27;37.95;;;23.13;;
59263;SDS011;45030;42.720;23.344;2023-04-24T10:21:54;11.30;;;6.07;;
59263;SDS011;45030;42.720;23.344;2023-04-24T10:24:21;30.05;;;16.83;;
59263;SDS011;45030;42.720;23.344;2023-04-24T10:26:46;9.02;;;5.38;;
59263;SDS011;45030;42.720;23.344;2023-04-24T10:29:13;5.45;;;3.47;;
59263;SDS011;45030;42.720;23.344;2023-04-24T10:31:40;9.63;;;5.10;;
59263;SDS011;45030;42.720;23.344;2023-04-24T10:34:05;5.47;;;3.30;;
59263;SDS011;45030;42.720;23.344;2023-04-24T10:36:32;10.18;;;4.28;;
59263;SDS011;45030;42.720;23.344;2023-04-24T10:38:59;5.15;;;3.55;;
59263;SDS011;45030;42.720;23.344;2023-04-24T10:41:25;7.88;;;4.47;;
59263;SDS011;45030;42.720;23.344;2023-04-24T10:46:35;6.90;;;3.17;;
59263;SDS011;45030;42.720;23.344;2023-04-24T10:49:03;4.88;;;3.50;;
59263;SDS011;45030;42.720;23.344;2023-04-24T10:51:44;4.55;;;3.20;;
59263;SDS011;45030;42.720;23.344;2023-04-24T10:54:23;5.57;;;3.03;;
59263;SDS011;45030;42.720;23.344;2023-04-24T10:56:52;4.30;;;3.22;;
59263;SDS011;45030;42.720;23.344;2023-04-24T10:59:25;8.80;;;3.28;;
59263;SDS011;45030;42.720;23.344;2023-04-24T11:01:53;5.22;;;2.88;;
59263;SDS011;45030;42.720;23.344;2023-04-24T11:04:29;5.03;;;2.80;;
59263;SDS011;45030;42.720;23.344;2023-04-24T11:06:55;6.82;;;3.05;;
59263;SDS011;45030;42.720;23.344;2023-04-24T11:09:21;7.00;;;3.00;;
59263;SDS011;45030;42.720;23.344;2023-04-24T11:11:46;4.28;;;3.35;;
59263;SDS011;45030;42.720;23.344;2023-04-24T11:14:14;3.80;;;3.00;;
59263;SDS011;45030;42.720;23.344;2023-04-24T11:16:52;4.90;;;3.70;;
59263;SDS011;45030;42.720;23.344;2023-04-24T11:19:22;7.10;;;3.42;;
59263;SDS011;45030;42.720;23.344;2023-04-24T11:21:58;6.75;;;3.67;;
59263;SDS011;45030;42.720;23.344;2023-04-24T11:27:16;8.52;;;3.60;;
59263;SDS011;45030;42.720;23.344;2023-04-24T11:32:17;5.38;;;3.63;;
59263;SDS011;45030;42.720;23.344;2023-04-24T11:34:48;8.13;;;4.30;;
59263;SDS011;45030;42.720;23.344;2023-04-24T11:37:13;8.27;;;4.88;;
59263;SDS011;45030;42.720;23.344;2023-04-24T11:39:39;5.68;;;4.00;;
59263;SDS011;45030;42.720;23.344;2023-04-24T11:42:05;6.75;;;3.78;;
59263;SDS011;45030;42.720;23.344;2023-04-24T11:44:33;6.13;;;3.65;;
59263;SDS011;45030;42.720;23.344;2023-04-24T11:46:58;4.55;;;3.65;;
59263;SDS011;45030;42.720;23.344;2023-04-24T11:49:23;3.80;;;3.30;;
59263;SDS011;45030;42.720;23.344;2023-04-24T11:51:49;4.22;;;3.42;;
59263;SDS011;45030;42.720;23.344;2023-04-24T11:54:14;3.80;;;3.40;;
59263;SDS011;45030;42.720;23.344;2023-04-24T11:56:44;4.57;;;3.13;;
59263;SDS011;45030;42.720;23.344;2023-04-24T11:59:09;3.55;;;2.90;;
59263;SDS011;45030;42.720;23.344;2023-04-24T12:01:45;5.65;;;3.00;;
59263;SDS011;45030;42.720;23.344;2023-04-24T12:04:10;4.95;;;3.20;;
59263;SDS011;45030;42.720;23.344;2023-04-24T12:06:36;3.50;;;2.90;;
59263;SDS011;45030;42.720;23.344;2023-04-24T12:09:01;5.35;;;3.00;;
59263;SDS011;45030;42.720;23.344;2023-04-24T12:11:27;5.82;;;3.30;;
59263;SDS011;45030;42.720;23.344;2023-04-24T12:13:52;3.97;;;2.72;;
59263;SDS011;45030;42.720;23.344;2023-04-24T12:16:18;3.75;;;2.80;;
59263;SDS011;45030;42.720;23.344;2023-04-24T12:18:44;3.15;;;2.45;;
59263;SDS011;45030;42.720;23.344;2023-04-24T12:21:17;5.20;;;3.10;;
59263;SDS011;45030;42.720;23.344;2023-04-24T12:23:43;3.30;;;2.95;;
59263;SDS011;45030;42.720;23.344;2023-04-24T12:26:09;4.70;;;3.03;;
59263;SDS011;45030;42.720;23.344;2023-04-24T12:28:35;4.27;;;2.73;;
59263;SDS011;45030;42.720;23.344;2023-04-24T12:31:00;3.58;;;2.50;;
59263;SDS011;45030;42.720;23.344;2023-04-24T12:33:26;2.97;;;2.33;;
59263;SDS011;45030;42.720;23.344;2023-04-24T12:35:52;6.60;;;3.42;;
59263;SDS011;45030;42.720;23.344;2023-04-24T12:38:25;5.07;;;2.65;;
59263;SDS011;45030;42.720;23.344;2023-04-24T12:41:01;4.88;;;3.40;;
59263;SDS011;45030;42.720;23.344;2023-04-24T12:43:26;4.28;;;3.05;;
59263;SDS011;45030;42.720;23.344;2023-04-24T12:45:52;3.95;;;3.00;;
59263;SDS011;45030;42.720;23.344;2023-04-24T12:48:17;4.95;;;2.63;;
59263;SDS011;45030;42.720;23.344;2023-04-24T12:50:42;4.30;;;2.75;;
59263;SDS011;45030;42.720;23.344;2023-04-24T12:53:08;3.70;;;2.20;;
59263;SDS011;45030;42.720;23.344;2023-04-24T12:55:34;3.17;;;2.40;;
59263;SDS011;45030;42.720;23.344;2023-04-24T12:57:59;6.57;;;2.80;;
59263;SDS011;45030;42.720;23.344;2023-04-24T13:00:24;3.38;;;2.67;;
59263;SDS011;45030;42.720;23.344;2023-04-24T13:02:50;2.85;;;2.00;;
59263;SDS011;45030;42.720;23.344;2023-04-24T13:05:15;2.75;;;2.17;;
59263;SDS011;45030;42.720;23.344;2023-04-24T13:07:40;3.67;;;2.58;;
59263;SDS011;45030;42.720;23.344;2023-04-24T13:10:06;5.95;;;2.75;;
59263;SDS011;45030;42.720;23.344;2023-04-24T13:12:31;4.22;;;2.15;;
59263;SDS011;45030;42.720;23.344;2023-04-24T13:14:57;4.15;;;2.40;;
59263;SDS011;45030;42.720;23.344;2023-04-24T13:17:22;4.25;;;2.83;;
59263;SDS011;45030;42.720;23.344;2023-04-24T13:19:48;3.83;;;2.95;;
59263;SDS011;45030;42.720;23.344;2023-04-24T13:22:14;4.63;;;2.97;;
59263;SDS011;45030;42.720;23.344;2023-04-24T13:24:39;6.53;;;3.40;;
59263;SDS011;45030;42.720;23.344;2023-04-24T13:27:06;5.05;;;2.92;;
59263;SDS011;45030;42.720;23.344;2023-04-24T13:29:31;5.65;;;3.10;;
59263;SDS011;45030;42.720;23.344;2023-04-24T13:31:56;7.20;;;3.25;;
59263;SDS011;45030;42.720;23.344;2023-04-24T13:34:22;5.25;;;3.00;;
59263;SDS011;45030;42.720;23.344;2023-04-24T13:36:48;5.47;;;3.63;;
59263;SDS011;45030;42.720;23.344;2023-04-24T13:39:13;3.55;;;3.03;;
59263;SDS011;45030;42.720;23.344;2023-04-24T13:41:39;5.05;;;3.40;;
59263;SDS011;45030;42.720;23.344;2023-04-24T13:44:05;7.35;;;3.42;;
59263;SDS011;45030;42.720;23.344;2023-04-24T13:46:30;4.30;;;3.35;;
59263;SDS011;45030;42.720;23.344;2023-04-24T13:48:56;4.25;;;3.45;;
59263;SDS011;45030;42.720;23.344;2023-04-24T13:51:22;3.78;;;2.83;;
59263;SDS011;45030;42.720;23.344;2023-04-24T13:53:47;3.30;;;2.78;;
59263;SDS011;45030;42.720;23.344;2023-04-24T13:56:12;4.43;;;2.72;;
59263;SDS011;45030;42.720;23.344;2023-04-24T13:58:39;4.10;;;3.08;;
59263;SDS011;45030;42.720;23.344;2023-04-24T14:01:04;4.25;;;3.30;;
59263;SDS011;45030;42.720;23.344;2023-04-24T14:03:29;5.03;;;3.30;;
59263;SDS011;45030;42.720;23.344;2023-04-24T14:05:55;6.47;;;3.70;;
59263;SDS011;45030;42.720;23.344;2023-04-24T14:08:20;4.43;;;2.97;;
59263;SDS011;45030;42.720;23.344;2023-04-24T14:10:45;6.50;;;2.85;;
59263;SDS011;45030;42.720;23.344;2023-04-24T14:13:10;5.10;;;3.05;;
59263;SDS011;45030;42.720;23.344;2023-04-24T14:15:36;5.82;;;2.75;;
59263;SDS011;45030;42.720;23.344;2023-04-24T14:18:01;4.03;;;2.90;;
59263;SDS011;45030;42.720;23.344;2023-04-24T14:20:26;3.65;;;2.60;;
59263;SDS011;45030;42.720;23.344;2023-04-24T14:22:52;6.20;;;2.30;;
59263;SDS011;45030;42.720;23.344;2023-04-24T14:25:18;4.00;;;2.70;;
59263;SDS011;45030;42.720;23.344;2023-04-24T14:27:43;3.53;;;2.50;;
59263;SDS011;45030;42.720;23.344;2023-04-24T14:30:08;6.28;;;2.92;;